Terminal Aerodrome Forecast
Issued by NWS Billings, MT

Home | Current Version | Previous Version | Text Only | Print | Product List | Glossary On
Versions: 1 2 3 4 5 6 7 8 9 10 11 12 13 14 15 16 17
000
FTUS45 KTFX 240055 AAA
TAFMLS

TAF AMD
KMLS 240054Z 2401/2424 32010KT P6SM SCT060 BKN090
      TEMPO 2402/2404 VRB20G30KT 5SM -TSRAGS BKN040CB
     FM240600 25006KT P6SM SCT070 BKN120
     FM241300 27013KT P6SM SCT120=

USA.gov is the U.S. government's official web portal to all federal, state and local government web resources and services.